Time;durP1;ratioP1;P1;durP2;ratioP2;P2;SDS_P1;SDS_P2;PMS_P1;PMS_P2;Temp;Humidity;BMP_temperature;BMP_pressure;BME280_temperature;BME280_humidity;BME280_pressure;Samples;Min_cycle;Max_cycle;Signal;HPM_P1;HPM_P2
2023/03/08 00:00:36;;;;;;;16.10;11.20;;;4.80;99.90;;;;;;5117085;27;20197;-76
2023/03/08 00:03:01;;;;;;;18.73;12.30;;;4.70;99.90;;;;;;5117189;27;20223;-74
2023/03/08 00:05:27;;;;;;;18.00;12.47;;;4.70;99.90;;;;;;5117424;27;20189;-74
2023/03/08 00:07:53;;;;;;;18.50;11.87;;;4.80;99.90;;;;;;5117303;27;20169;-75
2023/03/08 00:10:21;;;;;;;17.57;11.57;;;5.00;99.90;;;;;;5110980;28;20222;-75
2023/03/08 00:12:47;;;;;;;18.57;12.10;;;4.90;99.90;;;;;;5114618;28;20228;-74
2023/03/08 00:15:13;;;;;;;17.47;12.77;;;4.80;99.90;;;;;;5114898;28;20631;-74
2023/03/08 00:17:39;;;;;;;18.73;12.27;;;4.80;99.90;;;;;;5114830;28;20179;-74
2023/03/08 00:20:07;;;;;;;15.67;11.33;;;4.80;99.90;;;;;;5114963;28;20180;-76
2023/03/08 00:22:37;;;;;;;16.03;11.23;;;4.70;99.90;;;;;;5096261;28;20288;-74
2023/03/08 00:25:03;;;;;;;17.53;11.43;;;4.70;99.90;;;;;;5096011;28;20164;-75
2023/03/08 00:27:29;;;;;;;17.20;10.40;;;4.80;99.90;;;;;;5127693;27;20204;-76
2023/03/08 00:29:55;;;;;;;15.43;10.30;;;4.80;99.90;;;;;;5116793;27;20205;-75
2023/03/08 00:32:23;;;;;;;16.03;10.83;;;4.80;99.90;;;;;;5116587;27;20222;-74
2023/03/08 00:34:50;;;;;;;16.77;11.23;;;4.90;99.90;;;;;;5116715;27;20181;-75
2023/03/08 00:37:15;;;;;;;16.00;10.90;;;5.00;99.90;;;;;;5116499;27;20549;-74
2023/03/08 00:39:42;;;;;;;18.17;11.87;;;5.10;99.90;;;;;;5115585;27;20193;-75
2023/03/08 00:42:08;;;;;;;19.93;11.67;;;5.00;99.90;;;;;;5113892;27;20263;-76
2023/03/08 00:44:34;;;;;;;19.30;12.27;;;5.00;99.90;;;;;;5095674;28;20336;-75
2023/03/08 00:47:00;;;;;;;19.97;11.97;;;5.00;99.90;;;;;;5096230;28;20165;-76
2023/03/08 00:49:27;;;;;;;16.70;11.40;;;4.90;99.90;;;;;;5096107;28;20163;-74
2023/03/08 00:51:52;;;;;;;17.00;11.43;;;4.90;99.90;;;;;;5095551;28;20570;-75
2023/03/08 00:54:18;;;;;;;17.43;11.53;;;5.00;99.90;;;;;;5095534;28;20168;-75
2023/03/08 00:56:43;;;;;;;17.87;11.70;;;5.00;99.90;;;;;;5095878;28;20529;-74
2023/03/08 00:59:09;;;;;;;16.97;10.90;;;5.10;99.90;;;;;;5098638;27;20182;-76
2023/03/08 01:01:35;;;;;;;15.07;10.53;;;5.00;99.90;;;;;;5134682;27;20155;-75
2023/03/08 01:04:02;;;;;;;14.33;9.43;;;4.80;99.90;;;;;;5116577;27;20194;-75
2023/03/08 01:06:28;;;;;;;15.07;9.43;;;4.80;99.90;;;;;;5134725;27;20248;-74
2023/03/08 01:08:54;;;;;;;12.67;8.63;;;4.80;99.90;;;;;;5134425;27;20170;-74
2023/03/08 01:11:23;;;;;;;11.50;7.93;;;4.80;99.90;;;;;;5116323;27;20201;-74
2023/03/08 01:13:50;;;;;;;9.63;6.63;;;4.70;99.90;;;;;;5116273;27;20175;-74
2023/03/08 01:16:18;;;;;;;12.10;7.13;;;4.70;99.90;;;;;;5106841;28;20171;-74
2023/03/08 01:18:44;;;;;;;9.80;6.77;;;4.80;99.90;;;;;;5099285;28;20220;-76
2023/03/08 01:21:10;;;;;;;12.30;7.77;;;4.70;99.90;;;;;;5113290;28;20212;-75
2023/03/08 01:23:36;;;;;;;11.53;7.83;;;4.70;99.90;;;;;;5095466;28;20215;-77
2023/03/08 01:26:05;;;;;;;12.43;7.53;;;4.80;99.90;;;;;;5113594;28;20231;-75
2023/03/08 01:28:31;;;;;;;8.90;7.00;;;4.70;99.90;;;;;;5095160;28;20234;-75
2023/03/08 01:31:06;;;;;;;9.23;6.70;;;4.70;99.90;;;;;;5095232;28;20629;-75
2023/03/08 01:33:33;;;;;;;11.47;7.43;;;4.60;99.90;;;;;;5095431;28;20177;-75
2023/03/08 01:36:03;;;;;;;10.37;7.50;;;4.60;99.90;;;;;;5095511;28;20271;-74
2023/03/08 01:38:28;;;;;;;11.90;8.23;;;4.60;99.90;;;;;;5095576;28;20634;-77
2023/03/08 01:40:59;;;;;;;11.37;7.43;;;4.70;99.90;;;;;;5095244;28;20207;-76
2023/03/08 01:43:26;;;;;;;10.93;7.57;;;4.60;99.90;;;;;;5095255;28;20274;-77
2023/03/08 01:46:05;;;;;;;13.53;8.30;;;4.50;99.90;;;;;;5095417;28;20180;-76
2023/03/08 01:48:35;;;;;;;13.90;8.30;;;4.60;99.90;;;;;;5107621;27;20170;-75
2023/03/08 01:51:03;;;;;;;12.40;6.93;;;4.60;99.90;;;;;;5115051;27;20197;-76
2023/03/08 01:53:31;;;;;;;10.67;7.00;;;4.60;99.90;;;;;;5133713;27;20202;-75
2023/03/08 01:55:57;;;;;;;12.63;6.90;;;4.60;99.90;;;;;;5115369;27;20694;-75
2023/03/08 01:58:24;;;;;;;13.17;7.97;;;4.60;99.90;;;;;;5115234;27;20513;-75
2023/03/08 02:00:49;;;;;;;11.40;7.67;;;4.50;99.90;;;;;;5115425;27;20161;-75
2023/03/08 02:03:15;;;;;;;10.80;7.00;;;4.40;99.90;;;;;;5115313;27;20446;-75
2023/03/08 02:05:43;;;;;;;9.70;6.80;;;4.30;99.90;;;;;;5108850;28;20268;-75
2023/03/08 02:08:09;;;;;;;9.33;6.33;;;4.50;99.90;;;;;;5104738;28;20178;-75
2023/03/08 02:10:36;;;;;;;9.10;5.80;;;4.50;99.90;;;;;;5094661;28;20167;-76
2023/03/08 02:13:05;;;;;;;9.80;6.83;;;4.70;99.90;;;;;;5113525;28;20174;-76
2023/03/08 02:15:30;;;;;;;9.63;6.17;;;4.70;99.90;;;;;;5112879;28;20156;-76
2023/03/08 02:17:56;;;;;;;9.73;6.23;;;4.60;99.90;;;;;;5094864;28;20167;-75
2023/03/08 02:20:37;;;;;;;9.10;6.30;;;4.60;99.90;;;;;;5094463;28;20171;-75
2023/03/08 02:23:10;;;;;;;9.03;6.00;;;4.40;99.90;;;;;;5094673;28;20708;-76
2023/03/08 02:25:38;;;;;;;10.27;6.60;;;4.40;99.90;;;;;;5095472;28;20171;-76
2023/03/08 02:28:05;;;;;;;9.43;6.20;;;4.30;99.90;;;;;;5113221;28;20246;-77
2023/03/08 02:30:35;;;;;;;10.07;6.67;;;4.30;99.90;;;;;;5112963;28;20164;-77
2023/03/08 02:33:01;;;;;;;9.10;6.23;;;4.30;99.90;;;;;;5095229;28;20170;-76
2023/03/08 02:35:28;;;;;;;10.17;6.70;;;4.50;99.90;;;;;;5094630;28;20164;-75
2023/03/08 02:37:54;;;;;;;11.30;7.07;;;4.30;99.90;;;;;;5113265;28;20171;-75
2023/03/08 02:40:21;;;;;;;10.83;6.97;;;4.40;99.90;;;;;;5094484;28;20655;-77
2023/03/08 02:42:46;;;;;;;10.20;6.33;;;4.40;99.90;;;;;;5094406;28;20190;-74
2023/03/08 02:45:12;;;;;;;12.20;6.40;;;4.50;99.90;;;;;;5094200;28;20246;-76
2023/03/08 02:47:44;;;;;;;10.10;6.63;;;4.50;99.90;;;;;;5113398;28;20174;-76
2023/03/08 02:50:11;;;;;;;9.27;5.90;;;4.50;99.90;;;;;;5094120;28;20249;-76
2023/03/08 02:52:39;;;;;;;9.17;5.63;;;4.40;99.90;;;;;;5094298;28;20627;-75
2023/03/08 02:55:05;;;;;;;14.07;6.27;;;4.30;99.90;;;;;;5112792;28;20175;-76
2023/03/08 02:57:32;;;;;;;9.90;6.43;;;4.30;99.90;;;;;;5095822;28;20166;-75
2023/03/08 03:00:00;;;;;;;11.17;7.00;;;4.30;99.90;;;;;;5094412;28;20259;-77
2023/03/08 03:02:25;;;;;;;12.93;7.87;;;4.30;99.90;;;;;;5095746;28;20570;-75
2023/03/08 03:04:51;;;;;;;13.53;8.17;;;4.30;99.90;;;;;;5097938;28;20220;-76
2023/03/08 03:07:17;;;;;;;12.70;7.80;;;4.30;99.90;;;;;;5116875;28;20575;-82
2023/03/08 03:09:42;;;;;;;13.90;8.47;;;4.20;99.90;;;;;;5098901;28;20172;-81
2023/03/08 03:12:08;;;;;;;11.37;7.40;;;4.30;99.90;;;;;;5098829;28;20692;-80
2023/03/08 03:14:34;;;;;;;13.27;8.40;;;4.30;99.90;;;;;;5098222;28;20170;-81
2023/03/08 03:16:59;;;;;;;14.37;7.43;;;4.30;99.90;;;;;;5098869;28;20702;-82
2023/03/08 03:19:25;;;;;;;11.03;6.70;;;4.10;99.90;;;;;;5098526;28;20269;-80
2023/03/08 03:21:50;;;;;;;12.43;7.10;;;3.90;99.90;;;;;;5116716;28;20291;-80
2023/03/08 03:24:17;;;;;;;12.67;7.07;;;3.80;99.90;;;;;;5102494;27;20224;-81
2023/03/08 03:26:44;;;;;;;11.73;7.07;;;3.70;99.90;;;;;;5136959;27;20157;-80
2023/03/08 03:29:09;;;;;;;10.77;6.23;;;3.80;99.90;;;;;;5119490;27;20169;-80
2023/03/08 03:31:35;;;;;;;9.77;6.33;;;3.80;99.90;;;;;;5118423;27;20172;-81
2023/03/08 03:34:01;;;;;;;9.93;5.93;;;3.80;99.90;;;;;;5136397;27;20260;-79
2023/03/08 03:36:27;;;;;;;8.77;5.87;;;3.80;99.90;;;;;;5136387;27;20875;-80
2023/03/08 03:38:52;;;;;;;7.93;5.20;;;3.90;99.90;;;;;;5118919;27;20173;-80
2023/03/08 03:41:21;;;;;;;10.70;5.30;;;3.80;99.90;;;;;;5136910;27;20172;-81
2023/03/08 03:43:47;;;;;;;9.07;5.40;;;3.90;99.90;;;;;;5136552;27;20197;-80
2023/03/08 03:46:15;;;;;;;9.40;5.07;;;3.70;99.90;;;;;;5118204;27;20696;-80
2023/03/08 03:48:42;;;;;;;8.20;4.77;;;3.60;99.90;;;;;;5127123;27;20227;-80
2023/03/08 03:51:16;;;;;;;7.40;4.90;;;3.50;99.90;;;;;;5097412;28;20184;-80
2023/03/08 03:53:42;;;;;;;9.33;5.37;;;3.50;99.90;;;;;;5097822;28;20177;-82
2023/03/08 03:56:13;;;;;;;7.77;4.53;;;3.50;99.90;;;;;;5115814;28;20551;-81
2023/03/08 03:58:39;;;;;;;6.67;3.87;;;3.50;99.90;;;;;;5115980;28;20238;-81
2023/03/08 04:01:28;;;;;;;6.50;4.27;;;3.60;99.90;;;;;;5097632;28;20174;-81
2023/03/08 04:03:54;;;;;;;6.30;4.33;;;3.50;99.90;;;;;;5115879;28;20201;-81
2023/03/08 04:06:22;;;;;;;6.50;4.10;;;3.70;99.90;;;;;;5097122;28;20234;-80
2023/03/08 04:08:51;;;;;;;6.50;3.77;;;3.60;99.90;;;;;;5115248;28;20163;-81
2023/03/08 04:11:21;;;;;;;6.60;4.00;;;3.60;99.90;;;;;;5097152;28;20169;-80
2023/03/08 04:13:47;;;;;;;8.23;4.30;;;3.50;99.90;;;;;;5096636;28;20169;-81
2023/03/08 04:16:19;;;;;;;7.37;4.17;;;3.50;99.90;;;;;;5117505;27;20606;-80
2023/03/08 04:18:45;;;;;;;8.17;4.50;;;3.40;99.90;;;;;;5135825;27;20640;-80
2023/03/08 04:21:12;;;;;;;6.37;4.23;;;3.40;99.90;;;;;;5116715;27;20166;-80
2023/03/08 04:23:38;;;;;;;6.67;3.93;;;3.40;99.90;;;;;;5135554;27;20262;-81
2023/03/08 04:26:05;;;;;;;7.40;4.70;;;3.40;99.90;;;;;;5135639;27;20251;-80
2023/03/08 04:28:32;;;;;;;7.13;4.77;;;3.40;99.90;;;;;;5135605;27;20243;-80
2023/03/08 04:30:59;;;;;;;6.73;4.40;;;3.40;99.90;;;;;;5133864;27;20169;-80
2023/03/08 04:33:25;;;;;;;11.93;5.30;;;3.40;99.90;;;;;;5097257;28;20543;-81
2023/03/08 04:35:51;;;;;;;7.00;4.97;;;3.40;99.90;;;;;;5104801;27;20638;-79
2023/03/08 04:38:18;;;;;;;7.70;4.83;;;3.40;99.90;;;;;;5117003;27;20203;-79
2023/03/08 04:41:10;;;;;;;8.57;4.53;;;3.40;99.90;;;;;;5135450;27;20533;-80
2023/03/08 04:43:47;;;;;;;7.93;5.07;;;3.40;99.90;;;;;;5135214;27;20186;-80
2023/03/08 04:46:15;;;;;;;6.97;4.67;;;3.30;99.90;;;;;;5135526;27;20165;-82
2023/03/08 04:48:40;;;;;;;9.53;4.80;;;3.20;99.90;;;;;;5116448;27;20197;-79
2023/03/08 04:51:09;;;;;;;8.13;5.40;;;3.30;99.90;;;;;;5116474;27;20208;-79
2023/03/08 04:53:35;;;;;;;8.93;5.00;;;3.10;99.90;;;;;;5116059;27;20531;-79
2023/03/08 04:56:01;;;;;;;8.77;4.53;;;3.20;99.90;;;;;;5116097;27;20227;-74
2023/03/08 04:58:28;;;;;;;7.90;4.60;;;3.10;99.90;;;;;;5134450;27;20658;-74
2023/03/08 05:00:54;;;;;;;8.00;5.43;;;3.10;99.90;;;;;;5115695;27;20180;-74
2023/03/08 05:03:19;;;;;;;7.47;5.00;;;3.10;99.90;;;;;;5096086;28;20190;-74
2023/03/08 05:05:55;;;;;;;8.67;5.83;;;3.10;99.90;;;;;;5113733;28;20162;-75
2023/03/08 05:08:21;;;;;;;7.43;4.97;;;3.10;99.90;;;;;;5095491;28;20173;-74
2023/03/08 05:10:52;;;;;;;6.77;4.53;;;3.10;99.90;;;;;;5095621;28;20686;-74
2023/03/08 05:13:19;;;;;;;8.27;4.93;;;3.30;99.90;;;;;;5095106;28;20261;-75
2023/03/08 05:15:44;;;;;;;9.23;5.07;;;3.30;99.90;;;;;;5095236;28;20177;-74
2023/03/08 05:18:10;;;;;;;7.10;4.23;;;3.30;99.90;;;;;;5123692;27;20169;-74
2023/03/08 05:20:36;;;;;;;5.53;4.10;;;3.20;99.90;;;;;;5133931;27;20169;-74
2023/03/08 05:23:02;;;;;;;5.00;3.53;;;3.10;99.90;;;;;;5115853;27;20206;-74
2023/03/08 05:25:30;;;;;;;5.73;3.63;;;3.00;99.90;;;;;;5115271;27;20161;-74
2023/03/08 05:27:55;;;;;;;4.90;3.60;;;3.00;99.90;;;;;;5115885;27;20570;-74
2023/03/08 05:30:21;;;;;;;6.20;3.40;;;3.00;99.90;;;;;;5115727;27;20233;-75
2023/03/08 05:32:47;;;;;;;5.57;3.90;;;3.00;99.90;;;;;;5116000;27;20200;-75
2023/03/08 05:35:12;;;;;;;5.03;3.23;;;2.90;99.90;;;;;;5115708;27;20170;-74
2023/03/08 05:37:38;;;;;;;4.67;3.37;;;2.80;99.90;;;;;;5134287;27;20602;-74
2023/03/08 05:40:05;;;;;;;5.23;3.73;;;2.90;99.90;;;;;;5115830;27;20173;-75
2023/03/08 05:42:32;;;;;;;3.77;2.97;;;2.80;99.90;;;;;;5116006;27;20201;-75
2023/03/08 05:44:58;;;;;;;4.90;3.50;;;2.90;99.90;;;;;;5099273;28;20169;-75
2023/03/08 05:47:24;;;;;;;4.13;3.40;;;3.00;99.90;;;;;;5095148;28;20158;-74
2023/03/08 05:49:51;;;;;;;4.63;3.27;;;3.00;99.90;;;;;;5094986;28;20331;-75
2023/03/08 05:52:16;;;;;;;6.63;3.57;;;2.90;99.90;;;;;;5113311;28;20192;-75
2023/03/08 05:54:42;;;;;;;6.17;3.67;;;2.80;99.90;;;;;;5095126;28;20569;-74
2023/03/08 05:57:09;;;;;;;6.93;3.23;;;2.90;99.90;;;;;;5095067;28;20174;-76
2023/03/08 05:59:35;;;;;;;5.23;3.03;;;2.90;99.90;;;;;;5113118;28;20172;-75
2023/03/08 06:02:02;;;;;;;5.70;3.57;;;2.90;99.90;;;;;;5095979;28;20173;-74
2023/03/08 06:04:27;;;;;;;4.97;3.47;;;2.90;99.90;;;;;;5094834;28;20698;-75
2023/03/08 06:06:53;;;;;;;4.37;3.47;;;2.90;99.90;;;;;;5095373;28;20226;-74
2023/03/08 06:09:19;;;;;;;6.07;3.43;;;2.90;99.90;;;;;;5113657;28;20162;-74
2023/03/08 06:11:44;;;;;;;7.50;4.50;;;2.70;99.90;;;;;;5115399;28;20169;-75
2023/03/08 06:14:10;;;;;;;4.87;3.77;;;2.60;99.90;;;;;;5133093;27;20192;-75
2023/03/08 06:16:36;;;;;;;4.53;4.00;;;2.50;99.90;;;;;;5115139;28;20598;-76
2023/03/08 06:19:02;;;;;;;5.23;3.97;;;2.70;99.90;;;;;;5113591;28;20185;-74
2023/03/08 06:21:28;;;;;;;7.43;4.43;;;2.80;99.90;;;;;;5115539;28;20230;-75
2023/03/08 06:23:55;;;;;;;5.70;4.53;;;2.80;99.90;;;;;;5133317;28;20506;-75
2023/03/08 06:26:20;;;;;;;6.23;4.60;;;2.90;99.90;;;;;;5105547;28;20165;-76
2023/03/08 06:28:46;;;;;;;4.97;4.03;;;2.80;99.90;;;;;;5094573;28;20653;-76
2023/03/08 06:31:14;;;;;;;6.13;4.30;;;2.70;99.90;;;;;;5101028;28;20162;-75
2023/03/08 06:33:40;;;;;;;5.97;4.83;;;2.60;99.90;;;;;;5094227;28;20526;-76
2023/03/08 06:36:11;;;;;;;6.77;5.10;;;2.60;99.90;;;;;;5095194;28;20184;-80
2023/03/08 06:38:39;;;;;;;6.73;4.67;;;2.70;99.90;;;;;;5099351;28;20208;-79
2023/03/08 06:41:07;;;;;;;6.63;4.83;;;2.70;99.90;;;;;;5100376;28;20169;-79
2023/03/08 06:43:33;;;;;;;8.30;5.40;;;2.70;99.90;;;;;;5117780;28;20212;-79
2023/03/08 06:46:06;;;;;;;6.87;5.40;;;2.70;99.90;;;;;;5117707;28;20226;-78
2023/03/08 06:48:33;;;;;;;8.20;5.33;;;2.80;99.90;;;;;;5118126;28;20204;-80
2023/03/08 06:50:59;;;;;;;7.23;4.80;;;2.70;99.90;;;;;;5107258;27;20578;-79
2023/03/08 06:53:25;;;;;;;7.13;5.30;;;2.80;99.90;;;;;;5117811;27;20241;-78
2023/03/08 06:55:51;;;;;;;7.23;5.17;;;2.90;99.90;;;;;;5105991;27;20158;-77
2023/03/08 06:58:18;;;;;;;6.47;5.10;;;2.80;99.90;;;;;;5118326;27;20169;-79
2023/03/08 07:00:44;;;;;;;7.77;5.37;;;2.80;99.90;;;;;;5133970;27;20174;-79
2023/03/08 07:03:11;;;;;;;9.87;5.43;;;2.80;99.90;;;;;;5112031;27;20569;-78
2023/03/08 07:05:37;;;;;;;8.47;5.40;;;2.70;99.90;;;;;;5121540;27;20158;-79
2023/03/08 07:08:03;;;;;;;6.60;4.50;;;2.70;99.90;;;;;;5098867;28;20657;-79
2023/03/08 07:10:30;;;;;;;7.73;4.83;;;2.70;99.90;;;;;;5124684;27;20153;-78
2023/03/08 07:12:56;;;;;;;6.63;4.53;;;2.80;99.90;;;;;;5119800;27;20169;-79
2023/03/08 07:15:22;;;;;;;6.80;4.40;;;2.70;99.90;;;;;;5129688;27;20188;-79
2023/03/08 07:17:56;;;;;;;5.97;4.07;;;2.50;99.90;;;;;;5132900;27;20173;-79
2023/03/08 07:20:24;;;;;;;5.83;4.13;;;2.50;99.90;;;;;;5132981;27;20174;-80
2023/03/08 07:22:56;;;;;;;6.03;3.97;;;2.60;99.90;;;;;;5131917;27;20259;-79
2023/03/08 07:25:36;;;;;;;4.83;3.40;;;2.60;99.90;;;;;;5115311;28;20238;-79
2023/03/08 07:28:08;;;;;;;5.50;3.80;;;2.70;99.90;;;;;;5127125;27;20168;-78
2023/03/08 07:30:35;;;;;;;5.30;3.83;;;2.70;99.90;;;;;;5126246;27;20979;-78
2023/03/08 07:33:10;;;;;;;7.03;4.00;;;2.80;99.90;;;;;;5135589;27;20161;-78
2023/03/08 07:35:39;;;;;;;6.50;3.90;;;2.80;99.90;;;;;;5136909;27;20194;-79
2023/03/08 07:38:12;;;;;;;5.97;3.90;;;2.70;99.90;;;;;;5108468;27;20171;-82
2023/03/08 07:40:38;;;;;;;7.40;4.10;;;2.80;99.90;;;;;;5118201;27;20263;-82
2023/03/08 07:43:07;;;;;;;5.73;3.90;;;2.80;99.90;;;;;;5111626;27;20284;-81
2023/03/08 07:45:33;;;;;;;6.37;4.47;;;2.70;99.90;;;;;;5125101;27;20286;-79
2023/03/08 07:48:05;;;;;;;6.10;4.17;;;2.80;99.90;;;;;;5124105;27;20169;-80
2023/03/08 07:50:32;;;;;;;5.47;4.20;;;3.00;99.90;;;;;;5125725;27;20160;-82
2023/03/08 07:53:00;;;;;;;10.67;4.30;;;3.10;99.90;;;;;;5109434;27;20258;-80
2023/03/08 07:55:35;;;;;;;5.77;4.13;;;3.20;99.90;;;;;;5125294;27;20166;-78
2023/03/08 07:58:02;;;;;;;6.63;3.90;;;3.20;99.90;;;;;;5118379;27;20168;-77
2023/03/08 08:00:48;;;;;;;5.10;3.83;;;3.10;99.90;;;;;;5135710;27;20176;-79
2023/03/08 08:03:15;;;;;;;4.53;3.37;;;3.10;99.90;;;;;;5127739;27;20193;-79
2023/03/08 08:05:41;;;;;;;8.07;4.00;;;3.20;99.90;;;;;;5117496;27;20175;-77
2023/03/08 08:08:07;;;;;;;5.13;3.60;;;3.30;99.90;;;;;;5117630;27;20191;-79
2023/03/08 08:10:36;;;;;;;4.60;3.90;;;3.20;99.90;;;;;;5101139;28;20166;-78
2023/03/08 08:13:06;;;;;;;5.10;3.77;;;3.10;99.90;;;;;;5110292;28;20181;-79
2023/03/08 08:15:33;;;;;;;4.57;3.33;;;3.00;99.90;;;;;;5134508;27;20201;-79
2023/03/08 08:17:59;;;;;;;4.60;3.80;;;3.00;99.90;;;;;;5117774;27;20194;-80
2023/03/08 08:20:31;;;;;;;4.93;3.67;;;3.00;99.90;;;;;;5135763;27;20178;-79
2023/03/08 08:23:10;;;;;;;5.73;4.23;;;2.90;99.90;;;;;;5136106;27;20177;-80
2023/03/08 08:25:39;;;;;;;5.60;4.20;;;2.80;99.90;;;;;;5115508;27;20199;-80
2023/03/08 08:28:56;;;;;;;6.57;3.90;;;2.90;99.90;;;;;;5114768;28;20186;-80
2023/03/08 08:31:27;;;;;;;4.53;3.70;;;3.10;99.90;;;;;;5113378;28;20162;-79
2023/03/08 08:33:53;;;;;;;5.70;4.23;;;3.20;99.90;;;;;;5115496;28;20176;-74
2023/03/08 08:36:19;;;;;;;7.03;4.67;;;3.20;99.90;;;;;;5121081;27;20177;-73
2023/03/08 08:38:46;;;;;;;6.73;4.83;;;3.20;99.90;;;;;;5117250;27;20169;-74
2023/03/08 08:41:16;;;;;;;6.67;4.30;;;3.20;99.90;;;;;;5135275;27;20162;-75
2023/03/08 08:43:45;;;;;;;7.77;5.57;;;3.20;99.90;;;;;;5114126;27;20235;-72
2023/03/08 08:46:13;;;;;;;7.27;4.83;;;3.40;99.90;;;;;;5096645;28;20162;-76
2023/03/08 08:48:41;;;;;;;6.67;4.70;;;3.30;99.90;;;;;;5134234;27;20153;-77
2023/03/08 08:51:08;;;;;;;7.20;5.40;;;3.20;99.90;;;;;;5111732;28;20557;-75
2023/03/08 08:53:37;;;;;;;7.57;5.67;;;3.20;99.90;;;;;;5113277;28;20194;-76
2023/03/08 08:56:22;;;;;;;6.83;5.30;;;3.30;99.90;;;;;;5113679;28;20193;-79
2023/03/08 08:58:48;;;;;;;8.57;5.60;;;3.40;99.90;;;;;;5114151;28;20215;-73
2023/03/08 09:01:16;;;;;;;7.60;5.33;;;3.50;99.90;;;;;;5114606;27;20165;-73
2023/03/08 09:03:44;;;;;;;7.10;5.07;;;3.40;99.90;;;;;;5134961;27;20575;-76
2023/03/08 09:06:11;;;;;;;5.67;4.23;;;3.50;99.90;;;;;;5116796;27;20249;-75
2023/03/08 09:08:37;;;;;;;4.50;4.03;;;3.50;99.90;;;;;;5116398;27;20193;-73
2023/03/08 09:11:08;;;;;;;6.07;4.43;;;3.60;99.90;;;;;;5134280;27;20185;-76
2023/03/08 09:13:40;;;;;;;5.40;4.30;;;3.50;99.90;;;;;;5116663;27;20230;-73
2023/03/08 09:16:23;;;;;;;5.13;3.80;;;3.50;99.90;;;;;;5134615;27;20626;-75
2023/03/08 09:18:55;;;;;;;3.90;3.20;;;3.50;99.90;;;;;;5111908;28;20474;-75
2023/03/08 09:21:24;;;;;;;5.50;4.20;;;3.30;99.90;;;;;;5115345;27;20627;-74
2023/03/08 09:23:52;;;;;;;5.27;4.13;;;3.20;99.90;;;;;;5135096;27;20216;-73
2023/03/08 09:26:43;;;;;;;6.13;3.87;;;3.20;99.90;;;;;;5113280;28;20255;-75
2023/03/08 09:29:23;;;;;;;5.87;4.10;;;3.30;99.90;;;;;;5114513;27;20174;-77
2023/03/08 09:31:50;;;;;;;9.03;4.20;;;3.50;99.90;;;;;;5112783;28;20520;-74
2023/03/08 09:34:16;;;;;;;5.50;4.50;;;3.40;99.90;;;;;;5133073;27;20260;-74
2023/03/08 09:36:49;;;;;;;6.57;4.90;;;3.40;99.90;;;;;;5114337;27;20200;-77
2023/03/08 09:39:19;;;;;;;9.07;5.57;;;3.40;99.90;;;;;;5117037;27;20169;-77
2023/03/08 09:42:04;;;;;;;8.47;6.07;;;3.50;99.90;;;;;;5133316;27;20193;-75
2023/03/08 09:44:48;;;;;;;8.50;5.83;;;3.60;99.90;;;;;;5133321;27;20640;-76
2023/03/08 09:47:26;;;;;;;10.47;7.17;;;3.80;99.90;;;;;;5110966;28;20191;-73
2023/03/08 09:50:04;;;;;;;9.70;6.43;;;3.90;99.90;;;;;;5115735;27;20165;-78
2023/03/08 09:52:59;;;;;;;6.47;4.93;;;3.80;99.90;;;;;;5115952;27;20157;-77
2023/03/08 09:55:39;;;;;;;7.90;6.23;;;3.80;99.90;;;;;;5116643;28;20161;-77
2023/03/08 09:58:31;;;;;;;7.17;5.30;;;3.80;99.90;;;;;;5115978;27;20202;-77
2023/03/08 10:01:20;;;;;;;13.33;6.87;;;3.90;99.90;;;;;;5115212;27;20181;-75
2023/03/08 10:04:33;;;;;;;10.43;6.07;;;4.00;99.90;;;;;;5115377;28;20226;-76
2023/03/08 10:07:08;;;;;;;22.90;8.07;;;4.00;99.90;;;;;;5134393;27;20648;-75
2023/03/08 10:10:00;;;;;;;24.17;8.43;;;4.10;99.90;;;;;;5134185;27;20217;-76
2023/03/08 10:12:33;;;;;;;25.37;8.13;;;4.10;99.90;;;;;;5095410;28;20198;-76
2023/03/08 10:15:09;;;;;;;17.43;8.53;;;4.20;99.90;;;;;;5111048;28;20173;-76
2023/03/08 10:17:57;;;;;;;12.93;8.37;;;4.50;99.90;;;;;;5113077;27;20166;-75
2023/03/08 10:20:36;;;;;;;11.47;6.97;;;4.40;99.90;;;;;;5113789;28;20631;-73
2023/03/08 10:23:15;;;;;;;10.47;6.33;;;4.20;99.90;;;;;;5102967;28;20198;-74
2023/03/08 10:25:49;;;;;;;7.73;5.43;;;4.10;99.90;;;;;;5110610;28;20181;-77
2023/03/08 10:28:34;;;;;;;14.30;10.00;;;4.10;99.90;;;;;;5111939;28;20624;-77
2023/03/08 10:31:21;;;;;;;15.47;8.80;;;4.30;99.90;;;;;;5114995;28;20189;-78
2023/03/08 10:33:57;;;;;;;16.07;10.17;;;4.30;99.90;;;;;;5112839;28;20253;-77
2023/03/08 10:36:27;;;;;;;16.13;8.93;;;4.50;99.90;;;;;;5095226;28;20624;-81
2023/03/08 10:39:18;;;;;;;12.80;7.60;;;4.50;99.90;;;;;;5105510;28;20234;-83
2023/03/08 10:42:13;;;;;;;15.10;8.77;;;4.30;99.90;;;;;;5113472;28;20170;-82
2023/03/08 10:44:54;;;;;;;9.63;6.00;;;4.40;99.90;;;;;;5116566;28;20216;-80
2023/03/08 10:47:37;;;;;;;17.93;7.93;;;4.50;99.90;;;;;;5109506;28;20195;-80
2023/03/08 10:50:23;;;;;;;9.73;6.47;;;4.60;99.90;;;;;;5112414;28;20250;-80
2023/03/08 10:52:51;;;;;;;9.70;7.17;;;4.40;99.90;;;;;;5133107;28;20170;-78
2023/03/08 10:55:21;;;;;;;11.17;7.10;;;4.30;99.90;;;;;;5110644;28;20165;-78
2023/03/08 10:58:02;;;;;;;11.43;8.00;;;4.40;99.90;;;;;;5115648;28;20618;-79
2023/03/08 11:00:35;;;;;;;12.73;8.40;;;4.20;99.90;;;;;;5133428;28;20145;-81
2023/03/08 11:03:22;;;;;;;14.17;8.80;;;4.30;99.90;;;;;;5115481;28;20202;-80
2023/03/08 11:06:13;;;;;;;10.13;7.20;;;4.20;99.90;;;;;;5116132;28;20214;-83
2023/03/08 11:09:18;;;;;;;12.60;7.97;;;4.10;99.90;;;;;;5116008;28;20561;-82
2023/03/08 11:11:56;;;;;;;10.70;7.53;;;4.20;99.90;;;;;;5111935;28;20183;-80
2023/03/08 11:14:24;;;;;;;11.40;7.67;;;4.20;99.90;;;;;;5112005;28;20210;-82
2023/03/08 11:17:18;;;;;;;10.93;8.13;;;4.30;99.90;;;;;;5111510;28;20177;-81
2023/03/08 11:19:58;;;;;;;10.97;8.10;;;4.30;99.90;;;;;;5114799;28;20218;-81
2023/03/08 11:22:50;;;;;;;13.13;8.53;;;4.30;99.90;;;;;;5132352;27;20169;-78
2023/03/08 11:25:59;;;;;;;12.17;8.60;;;4.50;99.90;;;;;;5111515;28;20536;-78
2023/03/08 11:28:38;;;;;;;15.80;10.00;;;4.50;99.90;;;;;;5134822;27;20291;-80
2023/03/08 11:31:26;;;;;;;16.07;9.60;;;4.50;99.90;;;;;;5136721;27;20172;-79
2023/03/08 11:34:17;;;;;;;22.87;13.07;;;4.90;99.90;;;;;;5118452;27;20204;-79
2023/03/08 11:40:13;;;;;;;13.27;9.43;;;5.20;99.90;;;;;;5136512;27;20181;-79
2023/03/08 11:43:36;;;;;;;12.30;8.63;;;5.20;99.90;;;;;;5135970;27;20156;-79
2023/03/08 11:46:37;;;;;;;10.17;7.83;;;5.00;99.90;;;;;;5049226;28;20212;-79
2023/03/08 11:49:42;;;;;;;12.60;8.97;;;5.00;99.90;;;;;;5032466;28;20172;-80
2023/03/08 11:52:31;;;;;;;12.57;9.07;;;5.00;99.90;;;;;;5128805;27;20524;-78
2023/03/08 11:55:53;;;;;;;12.73;8.63;;;4.90;99.90;;;;;;5136837;27;20164;-80
2023/03/08 11:58:42;;;;;;;11.67;9.13;;;5.00;99.90;;;;;;5136434;27;20623;-78
2023/03/08 12:01:34;;;;;;;13.93;9.30;;;5.10;99.90;;;;;;5136226;27;20162;-78
2023/03/08 12:04:18;;;;;;;13.50;9.27;;;5.00;99.90;;;;;;5136663;27;20192;-79
2023/03/08 12:06:45;;;;;;;15.90;10.57;;;4.70;99.90;;;;;;5106498;27;20176;-79
2023/03/08 12:09:37;;;;;;;14.57;9.57;;;4.90;99.90;;;;;;5117920;27;20298;-79
2023/03/08 12:12:08;;;;;;;15.13;10.40;;;4.90;99.90;;;;;;5136404;27;20170;-79
2023/03/08 12:15:04;;;;;;;12.47;9.50;;;4.90;99.90;;;;;;5135856;27;20193;-78
2023/03/08 12:17:37;;;;;;;13.50;10.47;;;4.90;99.90;;;;;;5135752;27;20181;-78
2023/03/08 12:20:07;;;;;;;14.10;10.43;;;5.00;99.90;;;;;;5111584;27;20181;-79
2023/03/08 12:23:15;;;;;;;13.23;10.00;;;4.90;99.90;;;;;;5135752;27;20163;-80
2023/03/08 12:25:46;;;;;;;12.37;10.17;;;4.90;99.90;;;;;;5117646;27;20184;-80
2023/03/08 12:28:33;;;;;;;13.07;10.37;;;4.80;99.90;;;;;;5108986;28;20621;-82
2023/03/08 12:34:42;;;;;;;14.83;11.07;;;4.90;99.90;;;;;;5118004;27;20194;-82
2023/03/08 12:37:27;;;;;;;14.37;10.27;;;4.80;99.90;;;;;;5098120;28;20202;-80
2023/03/08 12:40:29;;;;;;;15.10;10.90;;;4.80;99.90;;;;;;5097752;28;20680;-85
2023/03/08 12:43:10;;;;;;;13.87;10.60;;;4.70;99.90;;;;;;5106684;27;20166;-79
2023/03/08 12:45:36;;;;;;;14.37;11.33;;;4.70;99.90;;;;;;5123599;27;20167;-79
2023/03/08 12:48:21;;;;;;;14.67;10.47;;;4.70;99.90;;;;;;5124767;27;20158;-79
2023/03/08 12:50:52;;;;;;;14.77;10.50;;;4.60;99.90;;;;;;5113074;27;20189;-79
2023/03/08 12:53:37;;;;;;;14.70;10.87;;;4.70;99.90;;;;;;5096933;28;20187;-79
2023/03/08 12:56:10;;;;;;;17.53;12.27;;;4.70;99.90;;;;;;5115167;28;20630;-79
2023/03/08 12:58:55;;;;;;;15.90;12.17;;;4.70;99.90;;;;;;5115089;28;20182;-78
2023/03/08 13:01:32;;;;;;;16.93;11.93;;;4.60;99.90;;;;;;5111457;27;20254;-79
2023/03/08 13:04:04;;;;;;;14.93;10.67;;;4.60;99.90;;;;;;5127222;27;20198;-79
2023/03/08 13:06:51;;;;;;;16.07;11.93;;;4.50;99.90;;;;;;5096976;28;20655;-81
2023/03/08 13:09:57;;;;;;;14.60;11.37;;;4.60;99.90;;;;;;5120049;27;20248;-82
2023/03/08 13:12:37;;;;;;;14.13;10.57;;;4.90;99.90;;;;;;5083296;28;20210;-82
2023/03/08 13:15:12;;;;;;;15.60;11.53;;;4.90;99.90;;;;;;5097267;28;20315;-81
2023/03/08 13:17:55;;;;;;;16.07;11.57;;;5.00;99.90;;;;;;5097924;28;20209;-81
2023/03/08 13:20:56;;;;;;;15.43;11.53;;;4.80;99.90;;;;;;5097315;28;20184;-79
2023/03/08 13:24:09;;;;;;;14.57;11.60;;;4.80;99.90;;;;;;5097239;28;20293;-83